createdAt,value
2023-05-09T00:00:03.074Z,99.10
2023-05-09T00:02:30.903Z,99.10
2023-05-09T00:04:58.671Z,99.10
2023-05-09T00:07:26.396Z,99.20
2023-05-09T00:09:55.493Z,99.20
2023-05-09T00:12:23.329Z,99.20
2023-05-09T00:14:51.670Z,99.20
2023-05-09T00:17:19.374Z,99.20
2023-05-09T00:19:47.710Z,99.20
2023-05-09T00:22:15.467Z,99.20
2023-05-09T00:24:43.289Z,99.20
2023-05-09T00:27:12.315Z,99.20
2023-05-09T00:29:40.021Z,99.20
2023-05-09T00:32:07.790Z,99.20
2023-05-09T00:34:35.566Z,99.20
2023-05-09T00:37:03.312Z,99.30
2023-05-09T00:39:31.036Z,99.30
2023-05-09T00:41:58.763Z,99.30
2023-05-09T00:44:27.875Z,99.20
2023-05-09T00:46:55.623Z,99.30
2023-05-09T00:49:23.556Z,99.20
2023-05-09T00:51:51.372Z,99.20
2023-05-09T00:54:19.231Z,99.20
2023-05-09T00:56:47.482Z,99.20
2023-05-09T00:59:17.450Z,99.20
2023-05-09T01:01:46.856Z,99.20
2023-05-09T01:04:16.152Z,99.30
2023-05-09T01:06:53.355Z,99.30
2023-05-09T01:09:29.846Z,99.30
2023-05-09T01:12:07.793Z,99.30
2023-05-09T01:14:42.476Z,99.30
2023-05-09T01:17:17.144Z,99.30
2023-05-09T01:20:00.225Z,99.30
2023-05-09T01:22:31.891Z,99.60
2023-05-09T01:25:13.088Z,99.30
2023-05-09T01:27:49.365Z,99.30
2023-05-09T01:30:19.863Z,99.30
2023-05-09T01:32:50.754Z,99.30
2023-05-09T01:35:19.133Z,99.40
2023-05-09T01:37:50.809Z,99.40
2023-05-09T01:40:21.320Z,99.40
2023-05-09T01:42:53.029Z,99.40
2023-05-09T01:45:24.528Z,99.50
2023-05-09T01:47:52.937Z,99.50
2023-05-09T01:50:22.611Z,99.50
2023-05-09T01:52:53.189Z,99.50
2023-05-09T01:55:25.348Z,99.50
2023-05-09T01:57:55.218Z,99.50
2023-05-09T02:00:25.751Z,99.50
2023-05-09T02:02:54.250Z,99.50
2023-05-09T02:05:24.318Z,99.50
2023-05-09T02:07:52.799Z,99.50
2023-05-09T02:10:22.180Z,99.60
2023-05-09T02:12:49.899Z,99.60
2023-05-09T02:15:17.736Z,99.60
2023-05-09T02:17:47.094Z,99.60
2023-05-09T02:20:14.871Z,99.70
2023-05-09T02:22:44.246Z,99.70
2023-05-09T02:25:15.433Z,99.70
2023-05-09T02:27:46.759Z,99.70
2023-05-09T02:30:20.507Z,99.80
2023-05-09T02:32:51.197Z,99.80
2023-05-09T02:35:19.744Z,99.80
2023-05-09T02:37:48.379Z,99.80
2023-05-09T02:40:16.131Z,99.80
2023-05-09T02:42:43.840Z,99.80
2023-05-09T02:45:12.318Z,99.90
2023-05-09T02:47:40.787Z,99.90
2023-05-09T02:50:10.525Z,99.90
2023-05-09T02:52:38.283Z,99.90
2023-05-09T02:55:07.346Z,99.90
2023-05-09T02:57:35.464Z,99.90
2023-05-09T03:00:03.228Z,99.90
2023-05-09T03:02:30.966Z,99.90
2023-05-09T03:04:58.723Z,99.90
2023-05-09T03:07:27.784Z,99.90
2023-05-09T03:09:55.477Z,99.90
2023-05-09T03:12:23.173Z,99.90
2023-05-09T03:14:50.869Z,99.90
2023-05-09T03:17:21.182Z,99.90
2023-05-09T03:19:49.157Z,99.90
2023-05-09T03:22:16.932Z,99.90
2023-05-09T03:24:45.950Z,99.90
2023-05-09T03:27:13.652Z,99.90
2023-05-09T03:29:41.340Z,99.90
2023-05-09T03:32:09.228Z,99.90
2023-05-09T03:34:36.924Z,99.90
2023-05-09T03:37:04.798Z,99.90
2023-05-09T03:39:32.491Z,99.90
2023-05-09T03:42:01.614Z,99.90
2023-05-09T03:44:29.347Z,99.90
2023-05-09T03:46:57.098Z,99.90
2023-05-09T03:49:24.861Z,99.90
2023-05-09T03:51:52.595Z,99.90
2023-05-09T03:54:20.290Z,99.90
2023-05-09T03:56:47.984Z,99.90
2023-05-09T03:59:17.018Z,99.90
2023-05-09T04:01:45.135Z,99.90
2023-05-09T04:04:12.927Z,99.90
2023-05-09T04:06:40.738Z,99.90
2023-05-09T04:09:09.253Z,99.90
2023-05-09T04:11:36.957Z,99.90
2023-05-09T04:14:07.001Z,99.90
2023-05-09T04:16:36.124Z,99.90
2023-05-09T04:19:04.151Z,99.90
2023-05-09T04:21:32.776Z,99.90
2023-05-09T04:24:00.643Z,99.90
2023-05-09T04:26:28.561Z,99.90
2023-05-09T04:28:56.262Z,99.90
2023-05-09T04:31:24.339Z,99.90
2023-05-09T04:33:53.430Z,99.90
2023-05-09T04:36:21.192Z,99.90
2023-05-09T04:38:48.964Z,99.90
2023-05-09T04:41:16.957Z,99.90
2023-05-09T04:43:44.640Z,99.90
2023-05-09T04:46:12.440Z,99.90
2023-05-09T04:48:40.322Z,99.90
2023-05-09T04:51:09.356Z,99.90
2023-05-09T04:53:37.072Z,99.90
2023-05-09T04:56:04.939Z,99.90
2023-05-09T04:58:34.282Z,99.90
2023-05-09T05:01:02.040Z,99.90
2023-05-09T05:03:29.720Z,99.90
2023-05-09T05:05:57.465Z,99.90
2023-05-09T05:08:26.628Z,99.90
2023-05-09T05:10:54.319Z,99.90
2023-05-09T05:13:22.420Z,99.90
2023-05-09T05:15:50.588Z,99.90
2023-05-09T05:18:18.542Z,99.90
2023-05-09T05:20:46.256Z,99.90
2023-05-09T05:23:13.960Z,99.90
2023-05-09T05:25:42.981Z,99.90
2023-05-09T05:28:10.829Z,99.90
2023-05-09T05:30:38.618Z,99.90
2023-05-09T05:33:06.380Z,99.90
2023-05-09T05:35:34.138Z,99.90
2023-05-09T05:38:01.922Z,99.90
2023-05-09T05:40:29.615Z,99.90
2023-05-09T05:42:58.625Z,99.90
2023-05-09T05:45:26.679Z,99.90
2023-05-09T05:47:54.491Z,99.90
2023-05-09T05:50:22.301Z,99.90
2023-05-09T05:52:50.023Z,99.90
2023-05-09T05:55:17.986Z,99.90
2023-05-09T05:57:46.903Z,99.90
2023-05-09T06:00:17.268Z,99.90
2023-05-09T06:02:45.543Z,99.90
2023-05-09T06:05:13.717Z,99.90
2023-05-09T06:07:43.967Z,99.90
2023-05-09T06:10:11.977Z,99.90
2023-05-09T06:12:39.727Z,99.90
2023-05-09T06:15:08.342Z,99.90
2023-05-09T06:17:37.474Z,99.90
2023-05-09T06:20:06.122Z,99.90
2023-05-09T06:22:33.844Z,99.90
2023-05-09T06:25:01.591Z,99.90
2023-05-09T06:27:29.378Z,99.90
2023-05-09T06:29:57.056Z,99.90
2023-05-09T06:32:25.639Z,99.90
2023-05-09T06:34:54.691Z,99.90
2023-05-09T06:37:22.416Z,99.90
2023-05-09T06:39:50.266Z,99.90
2023-05-09T06:42:17.967Z,99.90
2023-05-09T06:44:45.729Z,99.90
2023-05-09T06:47:13.520Z,99.90
2023-05-09T06:49:41.207Z,99.90
2023-05-09T06:52:10.299Z,99.90
2023-05-09T06:54:38.943Z,99.90
2023-05-09T06:57:06.656Z,99.90
2023-05-09T06:59:34.428Z,99.90
2023-05-09T07:02:02.270Z,99.90
2023-05-09T07:04:30.154Z,99.90
2023-05-09T07:06:59.176Z,99.90
2023-05-09T07:09:28.725Z,99.90
2023-05-09T07:11:56.480Z,99.90
2023-05-09T07:14:24.272Z,99.90
2023-05-09T07:16:52.070Z,99.90
2023-05-09T07:19:19.813Z,99.90
2023-05-09T07:21:47.515Z,99.90
2023-05-09T07:24:15.227Z,99.90
2023-05-09T07:26:44.311Z,99.90
2023-05-09T07:29:12.080Z,99.90
2023-05-09T07:31:39.789Z,99.90
2023-05-09T07:34:07.474Z,99.90
2023-05-09T07:39:05.947Z,99.90
2023-05-09T07:41:33.637Z,99.90
2023-05-09T07:44:02.896Z,99.90
2023-05-09T07:46:30.679Z,99.90
2023-05-09T07:48:58.374Z,99.90
2023-05-09T07:51:26.350Z,99.90
2023-05-09T07:53:56.010Z,99.90
2023-05-09T07:56:23.779Z,99.90
2023-05-09T07:58:53.100Z,99.90
2023-05-09T08:01:23.356Z,99.90
2023-05-09T08:03:51.204Z,99.90
2023-05-09T08:06:19.229Z,99.90
2023-05-09T08:08:46.947Z,99.90
2023-05-09T08:11:14.628Z,99.90
2023-05-09T08:13:42.848Z,99.90
2023-05-09T08:16:10.596Z,99.80
2023-05-09T08:18:39.677Z,99.80
2023-05-09T08:21:07.469Z,99.80
2023-05-09T08:23:35.199Z,99.80
2023-05-09T08:26:02.915Z,99.80
2023-05-09T08:28:30.726Z,99.80
2023-05-09T08:30:58.634Z,99.80
2023-05-09T08:33:26.718Z,99.80
2023-05-09T08:35:56.235Z,99.80
2023-05-09T08:38:24.223Z,99.70
2023-05-09T08:40:51.988Z,99.70
2023-05-09T08:43:22.241Z,99.70
2023-05-09T08:45:57.935Z,99.70
2023-05-09T08:48:26.659Z,99.70
2023-05-09T08:50:56.694Z,99.60
2023-05-09T08:53:24.483Z,99.60
2023-05-09T08:55:52.874Z,99.50
2023-05-09T08:58:22.702Z,99.40
2023-05-09T09:00:51.386Z,99.40
2023-05-09T09:03:19.299Z,99.40
2023-05-09T09:05:49.139Z,99.40
2023-05-09T09:08:22.495Z,99.30
2023-05-09T09:10:50.307Z,99.30
2023-05-09T09:13:18.680Z,99.20
2023-05-09T09:15:48.510Z,99.30
2023-05-09T09:18:22.963Z,99.10
2023-05-09T09:20:57.042Z,99.10
2023-05-09T09:23:27.224Z,99.10
2023-05-09T09:26:00.018Z,99.00
2023-05-09T09:28:28.333Z,98.90
2023-05-09T09:30:56.131Z,98.90
2023-05-09T09:33:25.086Z,98.90
2023-05-09T09:35:54.495Z,98.90
2023-05-09T09:38:23.613Z,98.80
2023-05-09T09:40:56.534Z,98.70
2023-05-09T09:43:30.889Z,98.60
2023-05-09T09:46:01.799Z,98.50
2023-05-09T09:48:33.608Z,98.50
2023-05-09T09:51:08.801Z,98.40
2023-05-09T09:53:40.336Z,98.30
2023-05-09T09:56:10.080Z,98.30
2023-05-09T09:58:38.058Z,98.30
2023-05-09T10:01:07.589Z,98.20
2023-05-09T10:03:39.772Z,98.20
2023-05-09T10:06:11.225Z,98.20
2023-05-09T10:08:39.056Z,98.20
2023-05-09T10:11:07.259Z,98.10
2023-05-09T10:13:38.719Z,98.10
2023-05-09T10:16:09.510Z,98.10
2023-05-09T10:18:38.017Z,98.10
2023-05-09T10:21:08.885Z,98.00
2023-05-09T10:23:39.208Z,97.90
2023-05-09T10:26:15.532Z,97.90
2023-05-09T10:28:47.421Z,97.90
2023-05-09T10:31:20.244Z,97.80
2023-05-09T10:33:49.470Z,97.80
2023-05-09T10:36:20.546Z,97.80
2023-05-09T10:38:49.290Z,97.60
2023-05-09T10:41:18.694Z,97.60
2023-05-09T10:43:48.274Z,97.60
2023-05-09T10:46:16.816Z,97.50
2023-05-09T10:48:45.133Z,97.50
2023-05-09T10:51:14.049Z,97.40
2023-05-09T10:53:43.367Z,97.40
2023-05-09T10:56:23.086Z,97.30
2023-05-09T10:58:52.436Z,97.20
2023-05-09T11:01:31.237Z,97.10
2023-05-09T11:04:00.979Z,96.90
2023-05-09T11:06:47.011Z,96.80
2023-05-09T11:09:41.144Z,96.80
2023-05-09T11:12:12.077Z,96.80
2023-05-09T11:14:44.226Z,96.80
2023-05-09T11:17:13.546Z,96.60
2023-05-09T11:20:02.244Z,96.70
2023-05-09T11:22:32.576Z,96.70
2023-05-09T11:25:04.458Z,96.70
2023-05-09T11:27:39.926Z,96.70
2023-05-09T11:30:11.125Z,96.60
2023-05-09T11:32:47.612Z,96.40
2023-05-09T11:35:17.643Z,96.40
2023-05-09T11:37:47.853Z,96.30
2023-05-09T11:40:17.126Z,96.20
2023-05-09T11:42:46.558Z,96.20
2023-05-09T11:45:16.155Z,96.10
2023-05-09T11:47:44.269Z,96.10
2023-05-09T11:50:14.672Z,96.40
2023-05-09T11:52:43.284Z,95.90
2023-05-09T11:55:12.948Z,95.90
2023-05-09T11:57:42.285Z,95.80
2023-05-09T12:00:11.566Z,95.80
2023-05-09T12:02:40.969Z,95.70
2023-05-09T12:05:10.694Z,95.80
2023-05-09T12:07:39.492Z,95.80
2023-05-09T12:10:09.079Z,95.80
2023-05-09T12:12:37.227Z,95.60
2023-05-09T12:15:07.842Z,95.60
2023-05-09T12:17:35.630Z,95.50
2023-05-09T12:20:05.817Z,95.40
2023-05-09T12:22:34.072Z,95.40
2023-05-09T12:25:05.528Z,95.20
2023-05-09T12:27:33.847Z,95.10
2023-05-09T12:30:02.077Z,95.20
2023-05-09T12:32:32.760Z,95.20
2023-05-09T12:35:01.412Z,95.20
2023-05-09T12:37:32.954Z,95.00
2023-05-09T12:40:05.343Z,94.90
2023-05-09T12:42:33.605Z,94.70
2023-05-09T12:45:02.610Z,94.60
2023-05-09T12:47:31.623Z,94.50
2023-05-09T12:50:00.137Z,94.50
2023-05-09T12:52:41.591Z,94.50
2023-05-09T12:55:15.506Z,94.50
2023-05-09T12:57:43.483Z,94.40
2023-05-09T13:00:12.406Z,94.50
2023-05-09T13:02:42.194Z,94.60
2023-05-09T13:05:11.894Z,94.50
2023-05-09T13:07:42.046Z,94.30
2023-05-09T13:10:14.350Z,94.20
2023-05-09T13:12:47.947Z,94.20
2023-05-09T13:15:16.704Z,94.20
2023-05-09T13:17:44.785Z,94.10
2023-05-09T13:20:12.859Z,93.90
2023-05-09T13:22:43.830Z,93.70
2023-05-09T13:25:12.780Z,93.50
2023-05-09T13:27:40.678Z,93.40
2023-05-09T13:30:09.295Z,93.80
2023-05-09T13:32:37.410Z,93.90
2023-05-09T13:35:07.890Z,93.90
2023-05-09T13:37:35.760Z,93.80
2023-05-09T13:40:05.369Z,93.70
2023-05-09T13:42:35.240Z,93.60
2023-05-09T13:45:03.341Z,93.60
2023-05-09T13:47:31.096Z,93.60
2023-05-09T13:49:58.834Z,93.60
2023-05-09T13:52:26.734Z,93.70
2023-05-09T13:54:54.479Z,93.80
2023-05-09T13:57:23.589Z,93.90
2023-05-09T13:59:51.319Z,93.90
2023-05-09T14:02:19.136Z,93.80
2023-05-09T14:04:47.564Z,93.80
2023-05-09T14:07:16.617Z,93.70
2023-05-09T14:09:44.698Z,93.70
2023-05-09T14:12:14.170Z,93.60
2023-05-09T14:14:44.494Z,93.50
2023-05-09T14:17:13.238Z,93.40
2023-05-09T14:19:40.989Z,93.50
2023-05-09T14:22:08.797Z,93.30
2023-05-09T14:24:36.550Z,93.50
2023-05-09T14:27:04.624Z,93.90
2023-05-09T14:29:32.778Z,93.70
2023-05-09T14:32:01.870Z,93.70
2023-05-09T14:34:29.600Z,93.60
2023-05-09T14:36:57.538Z,93.80
2023-05-09T14:39:25.329Z,93.80
2023-05-09T14:41:53.115Z,93.90
2023-05-09T14:44:20.837Z,93.90
2023-05-09T14:46:48.729Z,93.90
2023-05-09T14:49:17.867Z,93.80
2023-05-09T14:51:45.602Z,93.80
2023-05-09T14:54:13.318Z,93.80
2023-05-09T14:56:41.025Z,93.90
2023-05-09T14:59:09.350Z,93.90
2023-05-09T15:01:37.213Z,94.00
2023-05-09T15:04:05.102Z,94.00
2023-05-09T15:06:34.276Z,94.10
2023-05-09T15:09:02.512Z,94.10
2023-05-09T15:11:36.379Z,94.10
2023-05-09T15:14:11.318Z,94.10
2023-05-09T15:16:39.647Z,94.20
2023-05-09T15:19:07.416Z,94.10
2023-05-09T15:21:36.507Z,94.20
2023-05-09T15:24:05.115Z,94.10
2023-05-09T15:26:33.072Z,94.30
2023-05-09T15:29:00.838Z,94.30
2023-05-09T15:31:32.596Z,94.40
2023-05-09T15:34:01.248Z,94.50
2023-05-09T15:36:30.330Z,94.60
2023-05-09T15:38:59.485Z,94.80
2023-05-09T15:41:27.203Z,94.80
2023-05-09T15:43:54.936Z,95.00
2023-05-09T15:46:22.793Z,95.10
2023-05-09T15:48:52.138Z,95.30
2023-05-09T15:51:20.774Z,95.40
2023-05-09T15:53:48.594Z,95.40
2023-05-09T15:56:17.679Z,95.60
2023-05-09T15:58:45.726Z,95.60
2023-05-09T16:01:14.461Z,95.70
2023-05-09T16:03:43.067Z,95.70
2023-05-09T16:06:12.730Z,95.80
2023-05-09T16:08:40.462Z,95.90
2023-05-09T16:11:08.348Z,95.90
2023-05-09T16:13:37.731Z,95.90
2023-05-09T16:16:06.273Z,96.00
2023-05-09T16:18:34.154Z,96.20
2023-05-09T16:21:01.893Z,96.30
2023-05-09T16:23:29.840Z,96.30
2023-05-09T16:25:57.664Z,96.30
2023-05-09T16:28:27.854Z,96.30
2023-05-09T16:30:56.971Z,96.40
2023-05-09T16:33:24.681Z,96.40
2023-05-09T16:35:52.423Z,96.50
2023-05-09T16:38:20.504Z,96.50
2023-05-09T16:40:49.819Z,96.60
2023-05-09T16:43:19.875Z,96.60
2023-05-09T16:45:47.906Z,96.70
2023-05-09T16:48:18.676Z,96.70
2023-05-09T16:50:47.882Z,96.80
2023-05-09T16:53:15.711Z,96.80
2023-05-09T16:55:43.417Z,96.80
2023-05-09T16:58:11.131Z,96.80
2023-05-09T17:00:38.865Z,96.90
2023-05-09T17:03:06.965Z,97.00
2023-05-09T17:05:36.426Z,97.00
2023-05-09T17:08:05.096Z,97.10
2023-05-09T17:10:35.822Z,97.10
2023-05-09T17:13:08.577Z,97.10
2023-05-09T17:15:38.228Z,97.20
2023-05-09T17:18:06.435Z,97.20
2023-05-09T17:20:35.753Z,97.20
2023-05-09T17:23:03.960Z,97.30
2023-05-09T17:25:31.830Z,97.30
2023-05-09T17:27:59.548Z,97.40
2023-05-09T17:30:27.304Z,97.30
2023-05-09T17:32:55.076Z,97.40
2023-05-09T17:35:25.570Z,97.40
2023-05-09T17:37:54.718Z,97.40
2023-05-09T17:40:22.654Z,97.50
2023-05-09T17:42:50.402Z,97.50
2023-05-09T17:45:18.440Z,97.50
2023-05-09T17:47:46.201Z,97.50
2023-05-09T17:50:17.318Z,97.60
2023-05-09T17:52:45.731Z,97.60
2023-05-09T17:55:15.180Z,97.60
2023-05-09T17:57:43.300Z,97.70
2023-05-09T18:00:12.989Z,97.70
2023-05-09T18:02:42.604Z,97.70
2023-05-09T18:05:10.990Z,97.70
2023-05-09T18:07:40.740Z,97.80
2023-05-09T18:10:10.032Z,97.80
2023-05-09T18:12:39.371Z,97.80
2023-05-09T18:15:08.609Z,97.90
2023-05-09T18:17:36.414Z,97.90
2023-05-09T18:20:04.643Z,97.90
2023-05-09T18:22:32.417Z,97.90
2023-05-09T18:25:01.867Z,98.00
2023-05-09T18:27:29.572Z,97.90
2023-05-09T18:29:58.646Z,98.00
2023-05-09T18:32:26.449Z,98.00
2023-05-09T18:34:54.162Z,98.00
2023-05-09T18:37:22.725Z,98.00
2023-05-09T18:39:50.522Z,98.10
2023-05-09T18:42:18.246Z,98.20
2023-05-09T18:44:45.955Z,98.10
2023-05-09T18:47:15.141Z,98.50
2023-05-09T18:49:42.966Z,98.20
2023-05-09T18:52:11.236Z,98.20
2023-05-09T18:54:41.005Z,98.30
2023-05-09T18:57:09.849Z,98.30
2023-05-09T18:59:37.722Z,98.30
2023-05-09T19:02:05.466Z,98.30
2023-05-09T19:04:34.637Z,98.40
2023-05-09T19:07:02.603Z,98.30
2023-05-09T19:09:30.579Z,98.40
2023-05-09T19:11:59.439Z,98.40
2023-05-09T19:14:27.168Z,98.40
2023-05-09T19:16:55.074Z,98.40
2023-05-09T19:19:22.822Z,98.50
2023-05-09T19:21:51.959Z,98.50
2023-05-09T19:24:20.030Z,98.60
2023-05-09T19:26:47.740Z,98.60
2023-05-09T19:29:15.555Z,98.60
2023-05-09T19:31:43.294Z,98.70
2023-05-09T19:34:11.124Z,98.60
2023-05-09T19:36:39.132Z,98.70
2023-05-09T19:39:09.253Z,98.70
2023-05-09T19:41:36.979Z,98.70
2023-05-09T19:44:06.727Z,98.60
2023-05-09T19:46:35.252Z,98.70
2023-05-09T19:49:03.101Z,98.70
2023-05-09T19:51:30.975Z,98.70
2023-05-09T19:53:58.701Z,98.70
2023-05-09T19:56:27.860Z,98.70
2023-05-09T19:58:55.621Z,98.70
2023-05-09T20:01:23.558Z,98.70
2023-05-09T20:03:52.246Z,98.70
2023-05-09T20:06:20.236Z,98.80
2023-05-09T20:08:48.204Z,98.80
2023-05-09T20:11:15.914Z,98.80
2023-05-09T20:13:45.619Z,98.80
2023-05-09T20:16:13.420Z,98.80
2023-05-09T20:18:41.399Z,98.80
2023-05-09T20:21:10.266Z,98.80
2023-05-09T20:23:39.424Z,98.70
2023-05-09T20:26:07.365Z,98.80
2023-05-09T20:28:35.172Z,98.70
2023-05-09T20:31:04.337Z,98.70
2023-05-09T20:33:32.071Z,98.70
2023-05-09T20:35:59.820Z,98.70
2023-05-09T20:38:27.651Z,98.80
2023-05-09T20:40:55.351Z,98.70
2023-05-09T20:43:23.049Z,99.10
2023-05-09T20:45:51.738Z,98.80
2023-05-09T20:48:23.142Z,98.70
2023-05-09T20:50:51.215Z,98.70
2023-05-09T20:53:18.985Z,98.70
2023-05-09T20:55:48.361Z,98.70
2023-05-09T20:58:17.992Z,98.70
2023-05-09T21:00:46.827Z,98.70
2023-05-09T21:03:15.056Z,98.80
2023-05-09T21:05:44.406Z,98.80
2023-05-09T21:08:12.521Z,98.80
2023-05-09T21:10:40.241Z,98.90
2023-05-09T21:13:08.027Z,98.90
2023-05-09T21:15:35.765Z,98.90
2023-05-09T21:18:03.551Z,98.90
2023-05-09T21:20:32.386Z,99.00
2023-05-09T21:23:01.496Z,98.90
2023-05-09T21:25:29.221Z,98.90
2023-05-09T21:27:57.174Z,99.00
2023-05-09T21:30:25.096Z,99.00
2023-05-09T21:32:53.385Z,99.00
2023-05-09T21:35:21.249Z,99.00
2023-05-09T21:37:50.374Z,99.10
2023-05-09T21:40:19.552Z,99.10
2023-05-09T21:42:47.948Z,99.10
2023-05-09T21:45:15.961Z,99.10
2023-05-09T21:47:43.689Z,99.20
2023-05-09T21:50:11.836Z,99.20
2023-05-09T21:52:39.541Z,99.10
2023-05-09T21:55:07.462Z,99.20
2023-05-09T21:57:36.540Z,99.50
2023-05-09T22:00:05.329Z,99.20
2023-05-09T22:02:33.933Z,99.20
2023-05-09T22:05:01.739Z,99.60
2023-05-09T22:07:29.422Z,99.30
2023-05-09T22:09:57.130Z,99.30
2023-05-09T22:12:24.880Z,99.30
2023-05-09T22:14:56.709Z,99.40
2023-05-09T22:17:24.999Z,99.40
2023-05-09T22:19:52.893Z,99.40
2023-05-09T22:22:21.153Z,99.50
2023-05-09T22:24:49.597Z,99.40
2023-05-09T22:27:17.406Z,99.50
2023-05-09T22:29:45.605Z,99.50
2023-05-09T22:32:15.323Z,99.50
2023-05-09T22:34:43.132Z,99.50
2023-05-09T22:37:10.845Z,99.50
2023-05-09T22:39:38.733Z,99.60
2023-05-09T22:42:06.673Z,99.80
2023-05-09T22:44:34.366Z,99.60
2023-05-09T22:47:02.069Z,99.60
2023-05-09T22:49:31.294Z,99.60
2023-05-09T22:51:58.994Z,99.60
2023-05-09T22:54:27.253Z,99.60
2023-05-09T22:56:54.955Z,99.60
2023-05-09T22:59:22.690Z,99.60
2023-05-09T23:01:50.504Z,99.70
2023-05-09T23:04:18.202Z,99.70
2023-05-09T23:06:47.272Z,99.70
2023-05-09T23:09:15.032Z,99.70
2023-05-09T23:11:42.773Z,99.70
2023-05-09T23:14:10.531Z,99.70
2023-05-09T23:16:38.260Z,99.70
2023-05-09T23:19:06.155Z,99.80
2023-05-09T23:21:33.894Z,99.80
2023-05-09T23:24:03.028Z,99.80
2023-05-09T23:26:30.730Z,99.90
2023-05-09T23:28:58.440Z,99.90
2023-05-09T23:31:26.187Z,99.90
2023-05-09T23:33:53.971Z,99.90
2023-05-09T23:36:21.700Z,99.90
2023-05-09T23:38:49.399Z,99.90
2023-05-09T23:41:18.570Z,99.90
2023-05-09T23:43:46.256Z,99.90
2023-05-09T23:46:13.996Z,99.90
2023-05-09T23:48:41.859Z,99.90
2023-05-09T23:51:09.550Z,99.90
2023-05-09T23:53:37.252Z,99.90
2023-05-09T23:56:06.319Z,99.90
2023-05-09T23:58:35.373Z,99.90
